Svinoy — V7RM5 — position and weather

sailwx.info

Track history (hours):
 
Tides and Currents Weather Stations Pressure Air Temp Water Temp Dewpoint Dewpoint Depression Visibility Wind Speed Wind Dir Waves Ship Positions

Svinoy

Last reported at 2014-Oct-30 11:20 UTC. Time now 2014-Oct-30 12:59 UTC.
Position N 29°44' W 095°16'.

Length 190 m; draft 7.6 m.

Type: Ship. MMSI: 538003541.

Date/timePositionNaut miles runAvg speedWind from/ knotsBaromVisibWave heightAir tempDewpointWater temp
2014-Oct-30 11:20N 29°44' W 095°16'0 0.0
2014-Oct-30 10:29N 29°44' W 095°16'0 0.0
2014-Oct-30 09:32N 29°44' W 095°16'0 0.0
2014-Oct-30 08:26N 29°44' W 095°16'0 0.0
2014-Oct-30 06:17N 29°44' W 095°16'0 0.0
2014-Oct-30 05:14N 29°44' W 095°16'0 0.0
2014-Oct-30 03:32N 29°44' W 095°16'0 0.0
2014-Oct-29 23:08N 29°44' W 095°16'0 0.0
2014-Oct-29 17:20N 29°44' W 095°16'0 0.0
2014-Oct-29 16:26N 29°44' W 095°16'0 0.0
2014-Oct-29 14:32N 29°44' W 095°16'0 0.0
2014-Oct-29 13:32N 29°44' W 095°16'0 0.0
2014-Oct-29 12:32N 29°44' W 095°16'0 0.0
2014-Oct-29 11:11N 29°44' W 095°16'0 0.0
2014-Oct-29 10:32N 29°44' W 095°16'0 0.0
2014-Oct-29 09:32N 29°44' W 095°16'0 0.0
2014-Oct-29 08:32N 29°44' W 095°16'0 0.0
2014-Oct-29 07:26N 29°44' W 095°16'0 0.0
2014-Oct-29 06:32N 29°44' W 095°16'0 0.0
2014-Oct-29 05:32N 29°44' W 095°16'0 0.0
2014-Oct-29 04:11N 29°44' W 095°16'0 0.0
2014-Oct-29 01:29N 29°44' W 095°16'1 1.5
2014-Oct-29 00:33N 29°43' W 095°14'5 5.1
2014-Oct-28 23:33N 29°44' W 095°08'6 6.3
2014-Oct-28 22:33N 29°43' W 095°01'9 9.4
2014-Oct-28 21:33N 29°35' W 094°56'1110.7
2014-Oct-28 20:33N 29°26' W 094°50'9 8.8
2014-Oct-28 19:31N 29°21' W 094°42'  
2014-Oct-23 11:33N 25°45' W 079°34'1010.1
2014-Oct-23 10:33N 25°55' W 079°32'1010.4
2014-Oct-23 09:33N 26°05' W 079°30'1010.4
2014-Oct-23 08:33N 26°16' W 079°29'1210.7
2014-Oct-23 07:23N 26°28' W 079°27'911.1
2014-Oct-23 06:33N 26°37' W 079°27'  
2014-Oct-20 15:30N 38°03' W 072°33'1213.0
2014-Oct-20 14:32N 38°15' W 072°29'1313.0
2014-Oct-20 13:33N 38°27' W 072°24'1212.6
2014-Oct-20 12:33N 38°39' W 072°19'1312.8
2014-Oct-20 11:33N 38°51' W 072°14'  
Track history (hours):
 
Tides and Currents Weather Stations Pressure Air Temp Water Temp Dewpoint Dewpoint Depression Visibility Wind Speed Wind Dir Waves Ship Positions

Svinoy

Last reported at 2014-Oct-30 11:20 UTC. Time now 2014-Oct-30 12:59 UTC.
Position N 29°44' W 095°16'.

Length 190 m; draft 7.6 m.

Type: Ship. MMSI: 538003541.

Date/timePositionNaut miles runAvg speedWind from/ knotsBaromVisibWave heightAir tempDewpointWater temp
2014-Oct-30 11:20N 29°44' W 095°16'0 0.0
2014-Oct-30 10:29N 29°44' W 095°16'0 0.0
2014-Oct-30 09:32N 29°44' W 095°16'0 0.0
2014-Oct-30 08:26N 29°44' W 095°16'0 0.0
2014-Oct-30 06:17N 29°44' W 095°16'0 0.0
2014-Oct-30 05:14N 29°44' W 095°16'0 0.0
2014-Oct-30 03:32N 29°44' W 095°16'0 0.0
2014-Oct-29 23:08N 29°44' W 095°16'0 0.0
2014-Oct-29 17:20N 29°44' W 095°16'0 0.0
2014-Oct-29 16:26N 29°44' W 095°16'0 0.0
2014-Oct-29 14:32N 29°44' W 095°16'0 0.0
2014-Oct-29 13:32N 29°44' W 095°16'0 0.0
2014-Oct-29 12:32N 29°44' W 095°16'0 0.0
2014-Oct-29 11:11N 29°44' W 095°16'0 0.0
2014-Oct-29 10:32N 29°44' W 095°16'0 0.0
2014-Oct-29 09:32N 29°44' W 095°16'0 0.0
2014-Oct-29 08:32N 29°44' W 095°16'0 0.0
2014-Oct-29 07:26N 29°44' W 095°16'0 0.0
2014-Oct-29 06:32N 29°44' W 095°16'0 0.0
2014-Oct-29 05:32N 29°44' W 095°16'0 0.0
2014-Oct-29 04:11N 29°44' W 095°16'0 0.0
2014-Oct-29 01:29N 29°44' W 095°16'1 1.5
2014-Oct-29 00:33N 29°43' W 095°14'5 5.1
2014-Oct-28 23:33N 29°44' W 095°08'6 6.3
2014-Oct-28 22:33N 29°43' W 095°01'9 9.4
2014-Oct-28 21:33N 29°35' W 094°56'1110.7
2014-Oct-28 20:33N 29°26' W 094°50'9 8.8
2014-Oct-28 19:31N 29°21' W 094°42'  
2014-Oct-23 11:33N 25°45' W 079°34'1010.1
2014-Oct-23 10:33N 25°55' W 079°32'1010.4
2014-Oct-23 09:33N 26°05' W 079°30'1010.4
2014-Oct-23 08:33N 26°16' W 079°29'1210.7
2014-Oct-23 07:23N 26°28' W 079°27'911.1
2014-Oct-23 06:33N 26°37' W 079°27'  
2014-Oct-20 15:30N 38°03' W 072°33'1213.0
2014-Oct-20 14:32N 38°15' W 072°29'1313.0
2014-Oct-20 13:33N 38°27' W 072°24'1212.6
2014-Oct-20 12:33N 38°39' W 072°19'1312.8
2014-Oct-20 11:33N 38°51' W 072°14'  

Dump ship's entire track history